createdAt,value
2019-06-26T00:00:10.316Z,80.76
2019-06-26T00:02:39.541Z,80.84
2019-06-26T00:05:08.874Z,80.98
2019-06-26T00:07:38.227Z,81.17
2019-06-26T00:10:07.969Z,81.42
2019-06-26T00:12:37.338Z,81.37
2019-06-26T00:15:07.234Z,81.47
2019-06-26T00:17:36.449Z,81.59
2019-06-26T00:20:07.375Z,81.68
2019-06-26T00:22:36.607Z,81.77
2019-06-26T00:25:06.105Z,81.89
2019-06-26T00:27:35.296Z,81.90
2019-06-26T00:30:05.293Z,81.91
2019-06-26T00:32:34.497Z,81.87
2019-06-26T00:35:03.724Z,81.97
2019-06-26T00:37:32.986Z,82.17
2019-06-26T00:40:02.296Z,82.16
2019-06-26T00:42:31.653Z,82.25
2019-06-26T00:45:00.896Z,82.30
2019-06-26T00:47:30.090Z,82.45
2019-06-26T00:49:59.294Z,82.46
2019-06-26T00:52:28.547Z,82.41
2019-06-26T00:54:57.733Z,82.34
2019-06-26T00:57:26.939Z,82.34
2019-06-26T00:59:56.163Z,82.31
2019-06-26T01:02:25.427Z,82.37
2019-06-26T01:04:56.640Z,82.40
2019-06-26T01:07:25.909Z,82.40
2019-06-26T01:09:55.108Z,82.48
2019-06-26T01:12:24.405Z,82.59
2019-06-26T01:14:53.800Z,82.78
2019-06-26T01:17:23.084Z,82.79
2019-06-26T01:19:52.358Z,82.80
2019-06-26T01:22:21.613Z,82.96
2019-06-26T01:24:51.044Z,83.09
2019-06-26T01:27:20.259Z,83.20
2019-06-26T01:29:49.800Z,83.31
2019-06-26T01:32:19.000Z,83.36
2019-06-26T01:34:48.188Z,83.39
2019-06-26T01:37:17.425Z,83.40
2019-06-26T01:39:46.607Z,83.45
2019-06-26T01:42:16.037Z,83.48
2019-06-26T01:44:45.662Z,83.56
2019-06-26T01:47:16.117Z,83.64
2019-06-26T01:49:45.317Z,83.66
2019-06-26T01:52:14.557Z,83.67
2019-06-26T01:54:43.756Z,83.82
2019-06-26T01:57:12.954Z,83.80
2019-06-26T01:59:42.236Z,83.70
2019-06-26T02:02:11.420Z,83.71
2019-06-26T02:04:40.615Z,83.72
2019-06-26T02:07:10.165Z,83.77
2019-06-26T02:09:39.378Z,83.80
2019-06-26T02:12:08.599Z,83.83
2019-06-26T02:14:38.228Z,83.94
2019-06-26T02:17:07.765Z,83.95
2019-06-26T02:19:36.971Z,83.99
2019-06-26T02:22:06.442Z,83.95
2019-06-26T02:24:35.654Z,83.96
2019-06-26T02:27:04.832Z,83.93
2019-06-26T02:29:34.082Z,84.00
2019-06-26T02:32:03.310Z,84.13
2019-06-26T02:34:32.497Z,84.26
2019-06-26T02:37:01.730Z,84.32
2019-06-26T02:39:30.934Z,84.33
2019-06-26T02:42:00.155Z,84.31
2019-06-26T02:44:47.120Z,84.28
2019-06-26T02:47:18.354Z,84.37
2019-06-26T02:49:31.703Z,84.38
2019-06-26T02:52:01.018Z,84.38
2019-06-26T02:54:30.209Z,84.38
2019-06-26T02:56:59.417Z,84.40
2019-06-26T02:59:28.738Z,84.49
2019-06-26T03:01:57.961Z,84.56
2019-06-26T03:04:27.162Z,84.61
2019-06-26T03:06:56.503Z,84.57
2019-06-26T03:09:25.694Z,84.61
2019-06-26T03:11:54.890Z,84.63
2019-06-26T03:14:24.177Z,84.59
2019-06-26T03:16:53.787Z,84.50
2019-06-26T03:19:23.030Z,84.37
2019-06-26T03:21:52.273Z,84.34
2019-06-26T03:24:21.486Z,84.48
2019-06-26T03:26:50.765Z,84.57
2019-06-26T03:29:20.005Z,84.60
2019-06-26T03:31:49.263Z,84.54
2019-06-26T03:34:18.501Z,84.43
2019-06-26T03:36:50.180Z,84.35
2019-06-26T03:39:20.419Z,84.16
2019-06-26T03:41:49.839Z,84.16
2019-06-26T03:44:19.095Z,84.25
2019-06-26T03:46:48.610Z,84.20
2019-06-26T03:49:17.843Z,84.22
2019-06-26T03:51:47.067Z,84.28
2019-06-26T03:54:16.519Z,84.32
2019-06-26T03:56:45.717Z,84.33
2019-06-26T03:59:14.944Z,84.29
2019-06-26T04:01:44.137Z,84.20
2019-06-26T04:04:13.346Z,84.13
2019-06-26T04:06:42.676Z,84.03
2019-06-26T04:09:11.865Z,83.95
2019-06-26T04:11:41.435Z,83.89
2019-06-26T04:14:10.743Z,83.84
2019-06-26T04:16:39.952Z,83.93
2019-06-26T04:19:09.335Z,83.93
2019-06-26T04:21:38.560Z,84.00
2019-06-26T04:24:08.103Z,84.09
2019-06-26T04:26:37.334Z,84.17
2019-06-26T04:29:06.605Z,84.10
2019-06-26T04:31:36.118Z,84.02
2019-06-26T04:34:05.463Z,84.04
2019-06-26T04:36:34.685Z,84.07
2019-06-26T04:39:05.826Z,84.20
2019-06-26T04:41:37.341Z,84.26
2019-06-26T04:44:06.576Z,84.25
2019-06-26T04:46:35.774Z,84.22
2019-06-26T04:49:04.972Z,84.21
2019-06-26T04:51:34.225Z,84.30
2019-06-26T04:54:03.402Z,84.42
2019-06-26T04:56:32.604Z,84.52
2019-06-26T04:59:03.273Z,84.50
2019-06-26T05:01:32.520Z,84.49
2019-06-26T05:04:01.754Z,84.48
2019-06-26T05:06:31.188Z,84.41
2019-06-26T05:09:00.398Z,84.37
2019-06-26T05:11:29.618Z,84.42
2019-06-26T05:13:58.886Z,84.39
2019-06-26T05:16:28.051Z,84.43
2019-06-26T05:18:57.280Z,84.37
2019-06-26T05:21:26.665Z,84.34
2019-06-26T05:23:55.840Z,84.38
2019-06-26T05:26:25.046Z,84.40
2019-06-26T05:28:54.310Z,84.50
2019-06-26T05:31:23.597Z,84.61
2019-06-26T05:33:52.806Z,84.63
2019-06-26T05:36:22.094Z,84.68
2019-06-26T05:38:51.295Z,84.72
2019-06-26T05:41:20.946Z,84.79
2019-06-26T05:43:50.511Z,84.78
2019-06-26T05:46:30.630Z,84.75
2019-06-26T05:48:52.442Z,84.60
2019-06-26T05:51:21.667Z,84.59
2019-06-26T05:53:51.040Z,84.53
2019-06-26T05:56:20.331Z,84.44
2019-06-26T05:58:49.685Z,84.48
2019-06-26T06:01:19.257Z,84.41
2019-06-26T06:03:48.497Z,84.41
2019-06-26T06:06:17.747Z,84.30
2019-06-26T06:08:46.936Z,84.18
2019-06-26T06:11:16.158Z,84.22
2019-06-26T06:13:45.817Z,84.14
2019-06-26T06:16:15.053Z,84.16
2019-06-26T06:18:44.238Z,84.13
2019-06-26T06:21:13.488Z,84.15
2019-06-26T06:23:45.220Z,84.25
2019-06-26T06:26:14.406Z,84.29
2019-06-26T06:28:43.635Z,84.11
2019-06-26T06:31:12.897Z,83.88
2019-06-26T06:33:42.085Z,83.82
2019-06-26T06:36:11.607Z,83.75
2019-06-26T06:38:40.800Z,83.74
2019-06-26T06:41:10.001Z,83.79
2019-06-26T06:43:39.453Z,83.94
2019-06-26T06:46:08.660Z,83.91
2019-06-26T06:48:37.867Z,83.93
2019-06-26T06:51:07.106Z,84.11
2019-06-26T06:53:37.299Z,84.27
2019-06-26T06:56:06.491Z,84.31
2019-06-26T06:58:35.743Z,84.58
2019-06-26T07:01:05.055Z,84.78
2019-06-26T07:03:34.266Z,84.98
2019-06-26T07:06:03.513Z,85.17
2019-06-26T07:08:32.727Z,85.27
2019-06-26T07:11:01.942Z,85.43
2019-06-26T07:13:31.417Z,85.59
2019-06-26T07:16:00.621Z,85.73
2019-06-26T07:18:29.828Z,85.74
2019-06-26T07:20:59.093Z,85.66
2019-06-26T07:23:28.320Z,85.52
2019-06-26T07:25:57.621Z,85.40
2019-06-26T07:28:26.896Z,85.46
2019-06-26T07:30:56.099Z,85.40
2019-06-26T07:33:27.598Z,85.21
2019-06-26T07:35:56.982Z,85.04
2019-06-26T07:38:26.174Z,84.78
2019-06-26T07:40:55.435Z,84.26
2019-06-26T07:43:24.716Z,84.15
2019-06-26T07:45:54.108Z,84.07
2019-06-26T07:48:23.302Z,83.99
2019-06-26T07:50:52.832Z,83.94
2019-06-26T07:53:22.074Z,84.07
2019-06-26T07:55:51.273Z,84.04
2019-06-26T07:58:20.613Z,83.91
2019-06-26T08:00:49.798Z,84.10
2019-06-26T08:03:18.998Z,84.23
2019-06-26T08:05:48.423Z,84.33
2019-06-26T08:08:17.680Z,84.30
2019-06-26T08:10:46.868Z,84.28
2019-06-26T08:13:16.346Z,84.40
2019-06-26T08:15:45.536Z,84.59
2019-06-26T08:18:14.725Z,84.85
2019-06-26T08:20:55.391Z,85.00
2019-06-26T08:23:15.396Z,85.10
2019-06-26T08:25:44.836Z,85.08
2019-06-26T08:28:14.260Z,85.16
2019-06-26T08:30:43.519Z,85.30
2019-06-26T08:33:12.729Z,85.27
2019-06-26T08:35:41.997Z,85.07
2019-06-26T08:38:15.338Z,84.88
2019-06-26T08:40:42.113Z,84.87
2019-06-26T08:43:11.563Z,84.92
2019-06-26T08:45:40.788Z,84.85
2019-06-26T08:48:19.334Z,84.75
2019-06-26T08:50:41.069Z,84.70
2019-06-26T08:53:10.455Z,84.72
2019-06-26T08:55:39.845Z,84.81
2019-06-26T08:58:09.192Z,84.86
2019-06-26T09:00:38.440Z,84.93
2019-06-26T09:03:07.660Z,84.96
2019-06-26T09:05:47.584Z,85.06
2019-06-26T09:08:07.922Z,85.00
2019-06-26T09:10:37.257Z,84.93
2019-06-26T09:13:06.518Z,85.07
2019-06-26T09:15:35.712Z,85.10
2019-06-26T09:18:04.929Z,85.14
2019-06-26T09:20:38.764Z,85.10
2019-06-26T09:23:08.542Z,85.14
2019-06-26T09:25:37.878Z,85.07
2019-06-26T09:28:07.201Z,84.98
2019-06-26T09:30:36.611Z,85.03
2019-06-26T09:33:06.104Z,85.16
2019-06-26T09:35:35.587Z,85.08
2019-06-26T09:38:04.903Z,85.03
2019-06-26T09:40:34.102Z,84.96
2019-06-26T09:43:03.482Z,84.89
2019-06-26T09:45:32.685Z,84.93
2019-06-26T09:48:01.926Z,84.98
2019-06-26T09:50:31.269Z,85.02
2019-06-26T09:53:00.485Z,85.03
2019-06-26T09:55:29.665Z,85.08
2019-06-26T09:57:58.893Z,85.00
2019-06-26T10:00:28.359Z,84.98
2019-06-26T10:02:57.569Z,84.99
2019-06-26T10:05:26.912Z,84.91
2019-06-26T10:07:56.112Z,84.94
2019-06-26T10:10:25.331Z,84.98
2019-06-26T10:12:54.633Z,85.11
2019-06-26T10:15:23.885Z,85.22
2019-06-26T10:17:53.111Z,84.98
2019-06-26T10:20:22.401Z,84.58
2019-06-26T10:22:51.581Z,84.18
2019-06-26T10:25:21.019Z,84.07
2019-06-26T10:27:50.358Z,84.02
2019-06-26T10:30:21.206Z,84.02
2019-06-26T10:32:50.608Z,84.19
2019-06-26T10:35:19.951Z,84.28
2019-06-26T10:37:49.132Z,84.38
2019-06-26T10:40:18.856Z,84.29
2019-06-26T10:42:48.100Z,84.22
2019-06-26T10:45:18.507Z,84.19
2019-06-26T10:47:47.758Z,84.17
2019-06-26T10:50:17.907Z,84.28
2019-06-26T10:52:47.223Z,84.35
2019-06-26T10:55:16.424Z,84.43
2019-06-26T10:57:45.679Z,84.49
2019-06-26T11:00:16.235Z,84.61
2019-06-26T11:02:45.463Z,84.54
2019-06-26T11:05:16.175Z,84.49
2019-06-26T11:07:45.846Z,84.55
2019-06-26T11:10:15.524Z,84.48
2019-06-26T11:12:48.835Z,84.62
2019-06-26T11:15:16.386Z,84.50
2019-06-26T11:17:45.735Z,84.42
2019-06-26T11:20:15.253Z,84.52
2019-06-26T11:22:44.575Z,84.64
2019-06-26T11:25:13.905Z,84.55
2019-06-26T11:27:43.213Z,84.41
2019-06-26T11:30:13.359Z,84.47
2019-06-26T11:32:42.565Z,84.49
2019-06-26T11:35:13.429Z,84.37
2019-06-26T11:37:42.801Z,84.33
2019-06-26T11:40:12.489Z,84.28
2019-06-26T11:42:41.717Z,84.14
2019-06-26T11:45:12.083Z,84.22
2019-06-26T11:47:41.412Z,84.25
2019-06-26T11:50:11.823Z,84.09
2019-06-26T11:52:42.031Z,84.02
2019-06-26T11:55:12.048Z,84.17
2019-06-26T11:57:41.401Z,84.22
2019-06-26T12:00:11.943Z,84.35
2019-06-26T12:02:41.160Z,84.36
2019-06-26T12:05:11.943Z,84.16
2019-06-26T12:07:41.417Z,84.02
2019-06-26T12:10:11.011Z,83.95
2019-06-26T12:12:40.588Z,83.99
2019-06-26T12:15:10.948Z,83.84
2019-06-26T12:17:40.231Z,83.69
2019-06-26T12:20:18.463Z,83.89
2019-06-26T12:22:41.153Z,83.83
2019-06-26T12:25:10.762Z,83.85
2019-06-26T12:27:40.025Z,83.64
2019-06-26T12:30:09.982Z,83.57
2019-06-26T12:32:42.423Z,83.78
2019-06-26T12:35:11.121Z,84.02
2019-06-26T12:37:40.533Z,84.12
2019-06-26T12:40:10.502Z,84.27
2019-06-26T12:42:40.133Z,84.04
2019-06-26T12:45:10.523Z,83.63
2019-06-26T12:47:39.847Z,83.50
2019-06-26T12:50:09.710Z,83.54
2019-06-26T12:52:38.912Z,83.75
2019-06-26T12:55:08.175Z,83.89
2019-06-26T12:57:37.485Z,83.65
2019-06-26T13:00:07.831Z,83.34
2019-06-26T13:02:37.116Z,83.28
2019-06-26T13:05:06.776Z,83.18
2019-06-26T13:07:36.253Z,83.01
2019-06-26T13:10:07.578Z,83.01
2019-06-26T13:12:37.456Z,83.16
2019-06-26T13:15:07.533Z,83.19
2019-06-26T13:17:37.060Z,83.09
2019-06-26T13:20:09.694Z,83.03
2019-06-26T13:22:37.881Z,83.34
2019-06-26T13:25:07.318Z,83.52
2019-06-26T13:27:36.934Z,83.28
2019-06-26T13:30:07.228Z,82.95
2019-06-26T13:32:36.925Z,82.99
2019-06-26T13:35:06.570Z,82.97
2019-06-26T13:37:35.783Z,82.89
2019-06-26T13:40:06.303Z,82.92
2019-06-26T13:42:35.807Z,82.87
2019-06-26T13:45:05.374Z,82.75
2019-06-26T13:47:34.615Z,83.03
2019-06-26T13:50:04.217Z,82.95
2019-06-26T13:52:33.446Z,82.88
2019-06-26T13:55:02.675Z,82.97
2019-06-26T13:57:32.108Z,83.00
2019-06-26T14:00:01.330Z,83.08
2019-06-26T14:02:30.565Z,82.99
2019-06-26T14:05:00.591Z,83.20
2019-06-26T14:07:29.753Z,83.39
2019-06-26T14:09:58.973Z,83.49
2019-06-26T14:12:28.447Z,83.36
2019-06-26T14:14:58.382Z,83.39
2019-06-26T14:17:27.782Z,83.45
2019-06-26T14:19:57.155Z,83.62
2019-06-26T14:22:26.393Z,83.70
2019-06-26T14:24:56.817Z,83.58
2019-06-26T14:27:26.163Z,83.67
2019-06-26T14:29:55.400Z,83.55
2019-06-26T14:32:24.778Z,83.53
2019-06-26T14:34:54.462Z,83.15
2019-06-26T14:37:23.688Z,82.84
2019-06-26T14:39:52.935Z,82.91
2019-06-26T14:42:22.625Z,82.84
2019-06-26T14:44:52.808Z,82.94
2019-06-26T14:47:22.526Z,82.81
2019-06-26T14:49:51.891Z,82.89
2019-06-26T14:52:23.268Z,83.02
2019-06-26T14:54:52.593Z,82.98
2019-06-26T14:57:25.730Z,82.79
2019-06-26T14:59:53.029Z,83.08
2019-06-26T15:02:22.276Z,83.37
2019-06-26T15:04:52.028Z,83.45
2019-06-26T15:07:21.355Z,83.70
2019-06-26T15:09:50.662Z,84.04
2019-06-26T15:12:23.050Z,84.13
2019-06-26T15:14:54.583Z,84.12
2019-06-26T15:17:24.051Z,83.88
2019-06-26T15:19:53.716Z,83.91
2019-06-26T15:22:23.039Z,84.10
2019-06-26T15:24:54.724Z,84.06
2019-06-26T15:27:24.029Z,83.87
2019-06-26T15:29:55.786Z,83.96
2019-06-26T15:32:25.289Z,83.60
2019-06-26T15:34:54.739Z,83.38
2019-06-26T15:37:24.340Z,83.27
2019-06-26T15:39:53.528Z,83.50
2019-06-26T15:42:23.143Z,83.20
2019-06-26T15:44:52.551Z,82.43
2019-06-26T15:47:21.747Z,81.11
2019-06-26T15:49:51.170Z,80.51
2019-06-26T15:52:23.016Z,80.79
2019-06-26T15:54:52.232Z,81.14
2019-06-26T15:57:22.315Z,80.88
2019-06-26T15:59:51.551Z,80.47
2019-06-26T16:02:21.967Z,79.88
2019-06-26T16:04:51.704Z,79.55
2019-06-26T16:07:20.962Z,79.40
2019-06-26T16:09:50.175Z,79.40
2019-06-26T16:12:20.130Z,79.52
2019-06-26T16:14:49.375Z,79.97
2019-06-26T16:17:25.119Z,80.02
2019-06-26T16:19:56.599Z,80.08
2019-06-26T16:22:32.153Z,79.74
2019-06-26T16:24:59.428Z,79.66
2019-06-26T16:27:28.726Z,79.58
2019-06-26T16:29:57.931Z,79.08
2019-06-26T16:32:27.205Z,78.95
2019-06-26T16:34:56.538Z,79.10
2019-06-26T16:37:26.095Z,78.89
2019-06-26T16:39:55.415Z,78.76
2019-06-26T16:42:24.811Z,78.80
2019-06-26T16:44:54.059Z,78.54
2019-06-26T16:47:23.413Z,78.42
2019-06-26T16:49:52.738Z,78.86
2019-06-26T16:52:21.954Z,79.13
2019-06-26T16:54:51.458Z,79.05
2019-06-26T16:57:20.783Z,79.24
2019-06-26T17:00:05.059Z,79.28
2019-06-26T17:02:23.307Z,79.03
2019-06-26T17:04:52.569Z,78.89
2019-06-26T17:07:21.775Z,79.17
2019-06-26T17:09:51.619Z,79.36
2019-06-26T17:12:20.880Z,79.65
2019-06-26T17:14:50.235Z,79.83
2019-06-26T17:17:19.734Z,80.23
2019-06-26T17:19:48.951Z,80.44
2019-06-26T17:22:18.175Z,80.42
2019-06-26T17:24:47.633Z,80.48
2019-06-26T17:27:16.871Z,80.76
2019-06-26T17:29:46.106Z,81.07
2019-06-26T17:32:15.550Z,81.22
2019-06-26T17:34:44.770Z,81.42
2019-06-26T17:37:14.008Z,81.68
2019-06-26T17:39:43.493Z,81.82
2019-06-26T17:42:12.724Z,81.93
2019-06-26T17:44:41.960Z,82.10
2019-06-26T17:47:11.361Z,82.09
2019-06-26T17:49:40.749Z,82.22
2019-06-26T17:52:09.984Z,82.39
2019-06-26T17:54:39.307Z,82.42
2019-06-26T17:57:08.640Z,82.16
2019-06-26T17:59:37.861Z,81.91
2019-06-26T18:02:07.354Z,81.75
2019-06-26T18:04:36.554Z,81.73
2019-06-26T18:07:05.787Z,81.28
2019-06-26T18:09:35.551Z,80.93
2019-06-26T18:12:04.764Z,80.72
2019-06-26T18:14:33.992Z,80.67
2019-06-26T18:17:03.452Z,80.52
2019-06-26T18:19:32.668Z,80.57
2019-06-26T18:22:02.043Z,80.75
2019-06-26T18:24:37.344Z,80.83
2019-06-26T18:27:12.440Z,80.86
2019-06-26T18:29:46.829Z,80.91
2019-06-26T18:32:19.470Z,81.04
2019-06-26T18:35:03.249Z,81.46
2019-06-26T18:37:40.543Z,81.64
2019-06-26T18:40:12.361Z,81.69
2019-06-26T18:42:41.584Z,81.83
2019-06-26T18:45:13.149Z,81.90
2019-06-26T18:47:42.689Z,82.01
2019-06-26T18:50:12.165Z,82.11
2019-06-26T18:52:45.941Z,82.17
2019-06-26T18:55:42.898Z,82.34
2019-06-26T18:58:23.013Z,82.49
2019-06-26T19:01:06.943Z,82.69
2019-06-26T19:03:40.474Z,83.03
2019-06-26T19:06:19.502Z,83.25
2019-06-26T19:08:57.004Z,83.42
2019-06-26T19:11:28.842Z,83.51
2019-06-26T19:14:01.737Z,83.65
2019-06-26T19:16:32.284Z,83.85
2019-06-26T19:19:05.482Z,84.06
2019-06-26T19:21:37.575Z,84.29
2019-06-26T19:24:10.694Z,84.55
2019-06-26T19:26:40.446Z,84.78
2019-06-26T19:29:09.687Z,84.87
2019-06-26T19:31:38.917Z,84.94
2019-06-26T19:34:08.233Z,84.93
2019-06-26T19:36:49.675Z,84.82
2019-06-26T19:39:08.500Z,84.77
2019-06-26T19:41:37.827Z,84.76
2019-06-26T19:44:08.970Z,84.81
2019-06-26T19:46:41.693Z,84.90
2019-06-26T19:49:09.091Z,84.94
2019-06-26T19:51:39.674Z,85.19
2019-06-26T19:54:22.912Z,85.43
2019-06-26T19:56:40.248Z,85.60
2019-06-26T19:59:10.455Z,85.68
2019-06-26T20:01:39.676Z,85.78
2019-06-26T20:04:09.175Z,85.87
2019-06-26T20:06:38.417Z,85.94
2019-06-26T20:09:07.793Z,86.07
2019-06-26T20:11:37.253Z,86.04
2019-06-26T20:14:06.539Z,86.01
2019-06-26T20:16:35.757Z,86.04
2019-06-26T20:19:05.075Z,86.13
2019-06-26T20:21:34.618Z,86.21
2019-06-26T20:24:03.882Z,86.22
2019-06-26T20:26:33.318Z,86.22
2019-06-26T20:29:02.789Z,86.29
2019-06-26T20:31:32.427Z,86.40
2019-06-26T20:34:01.849Z,86.54
2019-06-26T20:36:31.115Z,86.55
2019-06-26T20:39:00.444Z,86.62
2019-06-26T20:41:29.872Z,86.66
2019-06-26T20:43:59.512Z,86.74
2019-06-26T20:46:28.964Z,86.81
2019-06-26T20:48:58.274Z,86.89
2019-06-26T20:51:27.646Z,86.97
2019-06-26T20:53:56.899Z,86.92
2019-06-26T20:56:26.411Z,86.90
2019-06-26T20:58:56.629Z,86.88
2019-06-26T21:01:25.889Z,86.88
2019-06-26T21:03:55.426Z,86.97
2019-06-26T21:06:24.676Z,86.97
2019-06-26T21:08:53.923Z,87.04
2019-06-26T21:11:23.320Z,87.03
2019-06-26T21:13:52.679Z,87.03
2019-06-26T21:16:21.904Z,87.05
2019-06-26T21:18:51.246Z,87.05
2019-06-26T21:21:21.598Z,87.02
2019-06-26T21:23:50.839Z,86.98
2019-06-26T21:26:20.243Z,86.98
2019-06-26T21:28:49.507Z,86.99
2019-06-26T21:31:18.751Z,87.04
2019-06-26T21:33:48.239Z,87.03
2019-06-26T21:36:17.513Z,87.07
2019-06-26T21:38:46.700Z,87.18
2019-06-26T21:41:16.004Z,87.27
2019-06-26T21:43:45.288Z,87.41
2019-06-26T21:46:14.517Z,87.60
2019-06-26T21:48:43.811Z,87.74
2019-06-26T21:51:13.099Z,87.78
2019-06-26T21:53:43.125Z,87.79
2019-06-26T21:56:12.659Z,87.85
2019-06-26T21:58:42.006Z,87.94
2019-06-26T22:01:11.220Z,88.03
2019-06-26T22:03:40.662Z,88.09
2019-06-26T22:06:10.015Z,88.17
2019-06-26T22:08:39.228Z,88.16
2019-06-26T22:11:09.284Z,88.18
2019-06-26T22:13:38.549Z,88.27
2019-06-26T22:16:07.783Z,88.29
2019-06-26T22:18:37.181Z,88.33
2019-06-26T22:21:06.589Z,88.56
2019-06-26T22:23:35.808Z,88.75
2019-06-26T22:26:05.700Z,88.99
2019-06-26T22:28:34.976Z,89.15
2019-06-26T22:31:04.198Z,89.20
2019-06-26T22:33:33.702Z,89.28
2019-06-26T22:36:03.274Z,89.33
2019-06-26T22:38:32.510Z,89.35
2019-06-26T22:41:01.910Z,89.35
2019-06-26T22:43:31.188Z,89.30
2019-06-26T22:46:00.405Z,89.27
2019-06-26T22:48:29.915Z,89.23
2019-06-26T22:50:59.331Z,89.20
2019-06-26T22:53:28.556Z,89.20
2019-06-26T22:56:07.422Z,89.15
2019-06-26T22:58:28.996Z,89.06
2019-06-26T23:00:58.359Z,89.01
2019-06-26T23:03:27.976Z,88.96
2019-06-26T23:05:57.317Z,88.87
2019-06-26T23:08:26.610Z,88.75
2019-06-26T23:10:55.949Z,88.70
2019-06-26T23:13:25.844Z,88.66
2019-06-26T23:15:55.073Z,88.71
2019-06-26T23:18:24.460Z,88.69
2019-06-26T23:20:53.794Z,88.67
2019-06-26T23:23:23.036Z,88.52
2019-06-26T23:25:52.379Z,88.42
2019-06-26T23:28:21.946Z,88.29
2019-06-26T23:30:51.221Z,88.15
2019-06-26T23:33:20.978Z,87.94
2019-06-26T23:35:50.332Z,87.73
2019-06-26T23:38:19.718Z,87.63
2019-06-26T23:40:49.060Z,87.53
2019-06-26T23:43:18.322Z,87.55
2019-06-26T23:45:47.603Z,87.53
2019-06-26T23:48:17.135Z,87.38
2019-06-26T23:50:46.687Z,87.19
2019-06-26T23:53:16.289Z,87.10
2019-06-26T23:55:45.702Z,87.01
2019-06-26T23:58:15.023Z,86.97
